createdAt,value
2018-07-05T00:02:30.739Z,100844.94
2018-07-05T00:05:11.204Z,100853.78
2018-07-05T00:07:51.664Z,100851.66
2018-07-05T00:10:32.120Z,100847.61
2018-07-05T00:13:12.612Z,100846.55
2018-07-05T00:15:53.250Z,100844.94
2018-07-05T00:18:33.809Z,100843.82
2018-07-05T00:21:13.967Z,100847.20
2018-07-05T00:23:54.378Z,100723.86
2018-07-05T00:26:34.692Z,100853.52
2018-07-05T00:29:15.094Z,100848.64
2018-07-05T00:31:55.579Z,100840.95
2018-07-05T00:34:35.907Z,100845.66
2018-07-05T00:37:16.053Z,100845.66
2018-07-05T00:39:56.486Z,100847.37
2018-07-05T00:42:36.918Z,100850.73
2018-07-05T00:45:17.404Z,100843.58
2018-07-05T00:47:57.774Z,100848.70
2018-07-05T00:50:38.058Z,100857.16
2018-07-05T00:53:18.179Z,100850.80
2018-07-05T00:55:58.581Z,100851.54
2018-07-05T00:58:38.825Z,100858.37
2018-07-05T01:01:19.227Z,100856.95
2018-07-05T01:03:59.512Z,100853.19
2018-07-05T01:06:39.873Z,100847.16
2018-07-05T01:09:20.130Z,100850.55
2018-07-05T01:12:00.690Z,100848.60
2018-07-05T01:14:41.054Z,100842.55
2018-07-05T01:17:21.836Z,100839.67
2018-07-05T01:20:02.081Z,100841.09
2018-07-05T01:22:42.642Z,100833.37
2018-07-05T01:25:23.001Z,100835.06
2018-07-05T01:28:03.503Z,100832.05
2018-07-05T01:30:43.839Z,100835.05
2018-07-05T01:33:24.109Z,100830.53
2018-07-05T01:36:04.286Z,100831.76
2018-07-05T01:38:44.794Z,100832.60
2018-07-05T01:41:25.160Z,100830.78
2018-07-05T01:44:05.513Z,100832.42
2018-07-05T01:46:45.748Z,100828.88
2018-07-05T01:49:26.334Z,100837.22
2018-07-05T01:52:10.617Z,100706.02
2018-07-05T01:54:50.946Z,100832.53
2018-07-05T01:57:31.193Z,100835.91
2018-07-05T02:00:11.461Z,100833.84
2018-07-05T02:02:52.228Z,100837.99
2018-07-05T02:05:34.015Z,100827.61
2018-07-05T02:08:14.453Z,100825.75
2018-07-05T02:10:55.050Z,100814.22
2018-07-05T02:13:35.221Z,100813.02
2018-07-05T02:16:16.102Z,100807.91
2018-07-05T02:18:56.656Z,100809.97
2018-07-05T02:21:37.218Z,100812.00
2018-07-05T02:24:17.484Z,100818.56
2018-07-05T02:26:57.963Z,100813.34
2018-07-05T02:29:38.585Z,100817.66
2018-07-05T02:32:18.996Z,100819.38
2018-07-05T02:34:59.263Z,100822.64
2018-07-05T02:37:44.989Z,100822.17
2018-07-05T02:40:26.310Z,100820.63
2018-07-05T02:43:06.525Z,100822.45
2018-07-05T02:45:47.115Z,100825.85
2018-07-05T02:48:27.394Z,100824.33
2018-07-05T02:51:07.807Z,100831.28
2018-07-05T02:53:48.418Z,100830.89
2018-07-05T02:56:28.633Z,100822.58
2018-07-05T02:59:08.992Z,100832.94
2018-07-05T03:01:49.161Z,100824.84
2018-07-05T03:04:29.631Z,100827.37
2018-07-05T03:07:10.063Z,100826.56
2018-07-05T03:09:50.423Z,100829.12
2018-07-05T03:12:30.783Z,100826.66
2018-07-05T03:15:11.248Z,100826.56
2018-07-05T03:17:51.332Z,100837.67
2018-07-05T03:20:31.944Z,100839.85
2018-07-05T03:23:12.322Z,100836.77
2018-07-05T03:25:52.989Z,100838.81
2018-07-05T03:28:33.348Z,100828.46
2018-07-05T03:31:13.914Z,100824.53
2018-07-05T03:33:54.277Z,100826.71
2018-07-05T03:36:34.697Z,100830.29
2018-07-05T03:39:15.163Z,100823.79
2018-07-05T03:41:55.819Z,100822.74
2018-07-05T03:44:35.954Z,100826.01
2018-07-05T03:47:16.476Z,100827.80
2018-07-05T03:49:56.835Z,100827.63
2018-07-05T03:52:37.249Z,100822.19
2018-07-05T03:55:17.453Z,100824.85
2018-07-05T03:57:58.323Z,100826.60
2018-07-05T04:00:38.688Z,100822.08
2018-07-05T04:03:19.453Z,100819.34
2018-07-05T04:06:00.221Z,100819.52
2018-07-05T04:08:40.604Z,100816.16
2018-07-05T04:11:20.830Z,100808.96
2018-07-05T04:14:01.402Z,100815.13
2018-07-05T04:16:41.865Z,100813.48
2018-07-05T04:19:22.524Z,100817.80
2018-07-05T04:22:02.783Z,100816.39
2018-07-05T04:24:43.273Z,100812.33
2018-07-05T04:27:23.598Z,100817.66
2018-07-05T04:30:03.935Z,100825.73
2018-07-05T04:32:44.202Z,100823.06
2018-07-05T04:35:24.580Z,100824.05
2018-07-05T04:38:04.613Z,100821.80
2018-07-05T04:40:45.116Z,100822.04
2018-07-05T04:43:25.298Z,100826.59
2018-07-05T04:46:06.119Z,100821.84
2018-07-05T04:48:46.477Z,100828.64
2018-07-05T04:51:26.724Z,100812.68
2018-07-05T04:54:06.992Z,100816.91
2018-07-05T04:56:47.352Z,100815.84
2018-07-05T04:59:27.711Z,100814.05
2018-07-05T05:02:08.202Z,100817.90
2018-07-05T05:04:48.521Z,100812.52
2018-07-05T05:07:29.039Z,100724.48
2018-07-05T05:10:09.374Z,100813.63
2018-07-05T05:12:50.092Z,100815.65
2018-07-05T05:15:30.402Z,100809.79
2018-07-05T05:18:10.759Z,100818.67
2018-07-05T05:20:51.037Z,100812.11
2018-07-05T05:23:31.659Z,100808.52
2018-07-05T05:26:11.917Z,100815.54
2018-07-05T05:28:52.529Z,100811.09
2018-07-05T05:31:32.840Z,100811.13
2018-07-05T05:34:13.130Z,100812.84
2018-07-05T05:36:53.496Z,100817.34
2018-07-05T05:39:33.915Z,100813.30
2018-07-05T05:42:14.484Z,100816.58
2018-07-05T05:44:55.070Z,100809.70
2018-07-05T05:47:35.326Z,100801.27
2018-07-05T05:50:15.745Z,100799.87
2018-07-05T05:52:56.173Z,100806.42
2018-07-05T05:55:37.019Z,100816.48
2018-07-05T05:58:17.763Z,100829.05
2018-07-05T06:00:58.175Z,100823.70
2018-07-05T06:03:38.643Z,100825.45
2018-07-05T06:06:18.991Z,100827.44
2018-07-05T06:08:59.203Z,100834.34
2018-07-05T06:11:40.105Z,100836.77
2018-07-05T06:14:20.241Z,100839.38
2018-07-05T06:17:00.688Z,100843.91
2018-07-05T06:19:41.151Z,100844.66
2018-07-05T06:22:21.537Z,100845.78
2018-07-05T06:25:01.766Z,100842.70
2018-07-05T06:27:42.247Z,100843.15
2018-07-05T06:30:22.483Z,100832.70
2018-07-05T06:33:02.971Z,100838.48
2018-07-05T06:35:43.109Z,100837.34
2018-07-05T06:38:23.671Z,100835.59
2018-07-05T06:41:04.685Z,100828.01
2018-07-05T06:43:45.415Z,100831.55
2018-07-05T06:46:25.693Z,100825.52
2018-07-05T06:49:06.335Z,100827.77
2018-07-05T06:51:46.591Z,100818.53
2018-07-05T06:54:27.073Z,100823.19
2018-07-05T06:57:07.285Z,100821.50
2018-07-05T06:59:47.534Z,100826.48
2018-07-05T07:02:27.823Z,100831.49
2018-07-05T07:05:08.283Z,100825.79
2018-07-05T07:07:48.542Z,100829.05
2018-07-05T07:10:29.209Z,100832.59
2018-07-05T07:13:09.363Z,100839.90
2018-07-05T07:15:50.238Z,100837.45
2018-07-05T07:18:30.363Z,100837.41
2018-07-05T07:21:10.749Z,100847.64
2018-07-05T07:23:51.027Z,100855.87
2018-07-05T07:26:31.502Z,100852.14
2018-07-05T07:29:11.827Z,100849.53
2018-07-05T07:31:52.294Z,100851.61
2018-07-05T07:34:32.592Z,100844.39
2018-07-05T07:37:12.903Z,100841.72
2018-07-05T07:39:53.366Z,100843.44
2018-07-05T07:42:21.332Z,100835.66
2018-07-05T07:44:49.612Z,100839.22
2018-07-05T07:47:17.576Z,100831.05
2018-07-05T07:49:45.651Z,100836.59
2018-07-05T07:52:13.516Z,100825.07
2018-07-05T07:54:41.482Z,100821.92
2018-07-05T07:57:09.631Z,100819.17
2018-07-05T07:59:37.729Z,100821.20
2018-07-05T08:02:05.594Z,100813.64
2018-07-05T08:04:33.520Z,100807.23
2018-07-05T08:07:01.554Z,100813.37
2018-07-05T08:09:29.450Z,100811.70
2018-07-05T08:11:57.370Z,100804.52
2018-07-05T08:14:25.295Z,100808.84
2018-07-05T08:16:53.036Z,100803.51
2018-07-05T08:19:21.070Z,100807.77
2018-07-05T08:21:49.074Z,100809.66
2018-07-05T08:24:16.905Z,100810.20
2018-07-05T08:26:44.874Z,100811.38
2018-07-05T08:29:12.944Z,100809.44
2018-07-05T08:31:40.936Z,100807.30
2018-07-05T08:34:08.711Z,100814.94
2018-07-05T08:36:36.522Z,100810.38
2018-07-05T08:39:05.394Z,100812.31
2018-07-05T08:41:33.349Z,100806.09
2018-07-05T08:44:01.166Z,100813.87
2018-07-05T08:46:29.745Z,100810.51
2018-07-05T08:48:57.807Z,100805.43
2018-07-05T08:51:25.691Z,100806.53
2018-07-05T08:53:53.584Z,100793.89
2018-07-05T08:56:21.777Z,100790.19
2018-07-05T08:58:49.595Z,100786.18
2018-07-05T09:01:17.471Z,100787.80
2018-07-05T09:03:45.436Z,100790.06
2018-07-05T09:06:13.221Z,100798.75
2018-07-05T09:08:41.039Z,100793.65
2018-07-05T09:11:09.134Z,100795.95
2018-07-05T09:13:36.999Z,100801.29
2018-07-05T09:16:04.970Z,100804.16
2018-07-05T09:18:33.142Z,100808.91
2018-07-05T09:21:01.158Z,100812.64
2018-07-05T09:23:29.222Z,100812.90
2018-07-05T09:25:56.843Z,100695.16
2018-07-05T09:28:25.122Z,100816.85
2018-07-05T09:30:53.190Z,100815.85
2018-07-05T09:33:20.996Z,100817.08
2018-07-05T09:35:49.126Z,100809.73
2018-07-05T09:38:17.238Z,100816.53
2018-07-05T09:40:45.270Z,100815.44
2018-07-05T09:43:13.132Z,100811.77
2018-07-05T09:45:41.138Z,100814.01
2018-07-05T09:48:09.209Z,100817.98
2018-07-05T09:50:36.981Z,100813.08
2018-07-05T09:53:05.015Z,100812.84
2018-07-05T09:55:32.859Z,100812.74
2018-07-05T09:58:00.882Z,100817.84
2018-07-05T10:00:33.837Z,100823.13
2018-07-05T10:03:01.937Z,100820.25
2018-07-05T10:05:30.079Z,100820.13
2018-07-05T10:07:58.012Z,100821.58
2018-07-05T10:10:26.086Z,100824.02
2018-07-05T10:12:53.991Z,100824.09
2018-07-05T10:15:21.840Z,100824.88
2018-07-05T10:17:49.978Z,100821.88
2018-07-05T10:20:17.682Z,100819.80
2018-07-05T10:22:45.550Z,100818.87
2018-07-05T10:25:13.453Z,100814.07
2018-07-05T10:27:41.218Z,100812.83
2018-07-05T10:30:21.850Z,100813.32
2018-07-05T10:33:01.855Z,100818.23
2018-07-05T10:35:29.805Z,100816.13
2018-07-05T10:38:01.757Z,100816.91
2018-07-05T10:40:42.935Z,100813.45
2018-07-05T10:43:23.410Z,100805.97
2018-07-05T10:46:04.076Z,100806.89
2018-07-05T10:48:44.702Z,100805.30
2018-07-05T10:51:25.061Z,100801.55
2018-07-05T10:54:05.829Z,100802.20
2018-07-05T10:56:46.702Z,100811.20
2018-07-05T10:59:27.369Z,100804.70
2018-07-05T11:02:07.728Z,100799.42
2018-07-05T11:04:48.211Z,100803.95
2018-07-05T11:07:28.629Z,100799.53
2018-07-05T11:10:08.738Z,100798.33
2018-07-05T11:12:48.895Z,100794.78
2018-07-05T11:15:29.321Z,100796.75
2018-07-05T11:18:09.477Z,100799.08
2018-07-05T11:20:49.873Z,100802.45
2018-07-05T11:23:30.399Z,100796.67
2018-07-05T11:26:10.786Z,100799.12
2018-07-05T11:28:51.213Z,100798.74
2018-07-05T11:31:31.782Z,100800.80
2018-07-05T11:34:11.866Z,100811.50
2018-07-05T11:36:52.358Z,100815.53
2018-07-05T11:39:32.630Z,100815.04
2018-07-05T11:42:12.955Z,100820.95
2018-07-05T11:44:53.299Z,100828.69
2018-07-05T11:47:33.744Z,100818.11
2018-07-05T11:50:14.099Z,100808.80
2018-07-05T11:52:54.762Z,100817.00
2018-07-05T11:55:35.010Z,100814.56
2018-07-05T11:58:15.372Z,100817.03
2018-07-05T12:00:55.609Z,100812.98
2018-07-05T12:03:35.945Z,100809.62
2018-07-05T12:06:16.269Z,100811.06
2018-07-05T12:08:56.749Z,100814.20
2018-07-05T12:11:37.169Z,100815.55
2018-07-05T12:14:17.557Z,100807.27
2018-07-05T12:16:57.614Z,100811.20
2018-07-05T12:19:38.098Z,100806.84
2018-07-05T12:22:18.224Z,100806.08
2018-07-05T12:24:58.888Z,100803.50
2018-07-05T12:27:39.118Z,100808.48
2018-07-05T12:30:19.523Z,100801.41
2018-07-05T12:32:59.839Z,100806.08
2018-07-05T12:35:40.569Z,100798.84
2018-07-05T12:38:20.956Z,100819.75
2018-07-05T12:41:01.396Z,100813.98
2018-07-05T12:43:41.785Z,100810.09
2018-07-05T12:46:31.922Z,100819.87
2018-07-05T12:49:12.434Z,100809.69
2018-07-05T12:54:45.282Z,100774.31
2018-07-05T12:57:25.262Z,100804.34
2018-07-05T13:00:05.628Z,100811.30
2018-07-05T13:02:45.846Z,100812.50
2018-07-05T13:05:26.369Z,100807.97
2018-07-05T13:08:06.948Z,100807.95
2018-07-05T13:10:47.234Z,100810.41
2018-07-05T13:13:27.726Z,100818.23
2018-07-05T13:16:07.910Z,100817.64
2018-07-05T13:18:48.270Z,100812.28
2018-07-05T13:21:28.524Z,100823.72
2018-07-05T13:24:09.196Z,100818.27
2018-07-05T13:26:49.474Z,100816.75
2018-07-05T13:29:29.978Z,100815.61
2018-07-05T13:32:10.052Z,100806.04
2018-07-05T13:34:50.322Z,100813.00
2018-07-05T13:37:30.681Z,100821.38
2018-07-05T13:40:11.307Z,100815.79
2018-07-05T13:42:51.500Z,100804.99
2018-07-05T13:45:32.127Z,100809.64
2018-07-05T13:48:12.221Z,100815.46
2018-07-05T13:50:52.733Z,100807.67
2018-07-05T13:53:33.172Z,100807.23
2018-07-05T13:56:14.167Z,100808.14
2018-07-05T13:58:54.375Z,100804.22
2018-07-05T14:01:35.752Z,100806.04
2018-07-05T14:04:16.031Z,100808.09
2018-07-05T14:06:56.542Z,100803.52
2018-07-05T14:09:36.943Z,100801.61
2018-07-05T14:12:42.590Z,100811.91
2018-07-05T14:18:15.402Z,100811.75
2018-07-05T14:20:55.753Z,100809.85
2018-07-05T14:23:36.366Z,100811.30
2018-07-05T14:26:16.694Z,100805.28
2018-07-05T14:28:57.188Z,100801.59
2018-07-05T14:31:37.728Z,100801.22
2018-07-05T14:34:17.750Z,100803.89
2018-07-05T14:36:58.420Z,100795.56
2018-07-05T14:39:46.483Z,100795.61
2018-07-05T14:42:26.817Z,100799.55
2018-07-05T14:45:07.486Z,100794.91
2018-07-05T14:47:48.258Z,100728.73
2018-07-05T14:50:28.620Z,100804.52
2018-07-05T14:53:09.100Z,100795.94
2018-07-05T14:55:49.069Z,100797.42
2018-07-05T14:58:29.919Z,100796.73
2018-07-05T15:01:10.255Z,100792.70
2018-07-05T15:03:51.020Z,100791.59
2018-07-05T15:06:31.177Z,100789.48
2018-07-05T15:09:11.846Z,100802.95
2018-07-05T15:11:52.072Z,100803.60
2018-07-05T15:14:32.597Z,100804.82
2018-07-05T15:17:13.098Z,100798.38
2018-07-05T15:19:53.487Z,100798.84
2018-07-05T15:22:33.743Z,100767.32
2018-07-05T15:25:14.022Z,100786.03
2018-07-05T15:27:54.182Z,100781.91
2018-07-05T15:30:34.802Z,100776.78
2018-07-05T15:33:15.105Z,100771.22
2018-07-05T15:35:55.936Z,100780.33
2018-07-05T15:38:36.518Z,100776.08
2018-07-05T15:41:16.914Z,100776.22
2018-07-05T15:43:57.353Z,100773.59
2018-07-05T15:46:38.329Z,100771.66
2018-07-05T15:49:18.871Z,100763.56
2018-07-05T15:51:59.417Z,100761.81
2018-07-05T15:54:39.586Z,100754.64
2018-07-05T15:57:20.280Z,100752.35
2018-07-05T16:00:01.169Z,100748.34
2018-07-05T16:02:41.711Z,100744.94
2018-07-05T16:05:22.155Z,100748.63
2018-07-05T16:08:02.820Z,100748.66
2018-07-05T16:10:42.956Z,100748.05
2018-07-05T16:13:23.374Z,100748.19
2018-07-05T16:16:03.906Z,100749.27
2018-07-05T16:18:44.464Z,100756.05
2018-07-05T16:21:24.557Z,100749.77
2018-07-05T16:24:05.183Z,100757.95
2018-07-05T16:26:45.334Z,100745.69
2018-07-05T16:29:25.998Z,100748.34
2018-07-05T16:32:06.260Z,100754.42
2018-07-05T16:34:46.922Z,100759.92
2018-07-05T16:37:27.481Z,100750.88
2018-07-05T16:40:08.099Z,100755.15
2018-07-05T16:42:48.396Z,100751.25
2018-07-05T16:45:29.121Z,100747.94
2018-07-05T16:48:09.545Z,100747.48
2018-07-05T16:50:49.932Z,100743.86
2018-07-05T16:53:30.464Z,100743.09
2018-07-05T16:56:10.966Z,100742.25
2018-07-05T16:58:51.180Z,100743.27
2018-07-05T17:01:31.868Z,100746.41
2018-07-05T17:04:12.141Z,100752.33
2018-07-05T17:06:52.631Z,100752.50
2018-07-05T17:09:32.820Z,100761.48
2018-07-05T17:12:13.223Z,100759.47
2018-07-05T17:14:53.488Z,100752.40
2018-07-05T17:17:33.996Z,100755.59
2018-07-05T17:20:14.358Z,100748.80
2018-07-05T17:22:55.362Z,100749.59
2018-07-05T17:25:35.594Z,100755.95
2018-07-05T17:28:16.053Z,100761.52
2018-07-05T17:30:56.410Z,100755.56
2018-07-05T17:33:37.172Z,100754.83
2018-07-05T17:36:17.338Z,100753.16
2018-07-05T17:38:57.941Z,100754.08
2018-07-05T17:41:38.258Z,100751.02
2018-07-05T17:44:18.757Z,100750.52
2018-07-05T17:46:59.122Z,100746.04
2018-07-05T17:49:39.611Z,100748.19
2018-07-05T17:52:19.799Z,100740.31
2018-07-05T17:55:00.296Z,100742.73
2018-07-05T17:57:40.721Z,100751.70
2018-07-05T18:00:21.282Z,100743.56
2018-07-05T18:03:01.954Z,100744.61
2018-07-05T18:05:42.412Z,100740.72
2018-07-05T18:08:22.625Z,100743.95
2018-07-05T18:11:03.136Z,100738.07
2018-07-05T18:13:43.667Z,100733.03
2018-07-05T18:16:24.131Z,100732.11
2018-07-05T18:19:04.430Z,100740.92
2018-07-05T18:21:44.956Z,100735.57
2018-07-05T18:24:25.144Z,100736.74
2018-07-05T18:27:05.704Z,100734.23
2018-07-05T18:29:45.968Z,100737.58
2018-07-05T18:32:26.562Z,100741.72
2018-07-05T18:35:06.891Z,100741.25
2018-07-05T18:37:47.286Z,100740.38
2018-07-05T18:40:27.858Z,100748.77
2018-07-05T18:43:08.165Z,100741.17
2018-07-05T18:45:48.628Z,100747.14
2018-07-05T18:48:28.874Z,100754.28
2018-07-05T18:51:09.441Z,100747.05
2018-07-05T18:53:49.876Z,100754.23
2018-07-05T18:56:30.293Z,100748.90
2018-07-05T18:59:12.127Z,100749.06
2018-07-05T19:01:52.857Z,100739.30
2018-07-05T19:04:33.625Z,100742.92
2018-07-05T19:07:14.209Z,100740.79
2018-07-05T19:09:54.414Z,100740.09
2018-07-05T19:12:34.881Z,100738.13
2018-07-05T19:15:15.337Z,100732.45
2018-07-05T19:17:55.703Z,100736.58
2018-07-05T19:20:36.059Z,100730.41
2018-07-05T19:23:16.731Z,100730.90
2018-07-05T19:25:57.269Z,100737.80
2018-07-05T19:28:37.802Z,100730.91
2018-07-05T19:31:18.098Z,100734.45
2018-07-05T19:33:58.392Z,100738.08
2018-07-05T19:36:38.825Z,100734.33
2018-07-05T19:39:19.292Z,100732.32
2018-07-05T19:42:00.060Z,100736.07
2018-07-05T19:44:40.417Z,100743.53
2018-07-05T19:47:20.879Z,100744.74
2018-07-05T19:50:01.117Z,100738.60
2018-07-05T19:52:41.630Z,100744.45
2018-07-05T19:55:21.954Z,100738.59
2018-07-05T19:58:02.469Z,100742.69
2018-07-05T20:00:42.625Z,100746.30
2018-07-05T20:03:23.292Z,100748.97
2018-07-05T20:06:04.160Z,100748.80
2018-07-05T20:08:44.779Z,100747.05
2018-07-05T20:11:25.342Z,100748.08
2018-07-05T20:14:05.906Z,100741.56
2018-07-05T20:16:46.143Z,100737.56
2018-07-05T20:19:26.750Z,100744.23
2018-07-05T20:22:10.882Z,100740.84
2018-07-05T20:24:51.546Z,100742.63
2018-07-05T20:27:32.000Z,100743.02
2018-07-05T20:30:12.629Z,100752.16
2018-07-05T20:32:53.232Z,100745.08
2018-07-05T20:35:33.596Z,100746.30
2018-07-05T20:38:13.706Z,100738.59
2018-07-05T20:40:54.410Z,100747.12
2018-07-05T20:43:34.565Z,100747.42
2018-07-05T20:46:15.181Z,100754.14
2018-07-05T20:48:55.592Z,100749.08
2018-07-05T20:51:36.008Z,100754.64
2018-07-05T20:54:16.629Z,100761.38
2018-07-05T20:56:57.517Z,100764.23
2018-07-05T20:59:38.154Z,100764.77
2018-07-05T21:02:18.688Z,100762.37
2018-07-05T21:05:00.155Z,100758.32
2018-07-05T21:07:41.356Z,100757.41
2018-07-05T21:10:21.637Z,100760.98
2018-07-05T21:13:02.497Z,100755.23
2018-07-05T21:15:42.601Z,100762.55
2018-07-05T21:18:23.094Z,100763.42
2018-07-05T21:21:04.102Z,100755.55
2018-07-05T21:23:44.640Z,100752.34
2018-07-05T21:26:25.440Z,100753.62
2018-07-05T21:29:05.892Z,100746.05
2018-07-05T21:31:46.381Z,100746.95
2018-07-05T21:34:26.819Z,100758.95
2018-07-05T21:37:07.023Z,100762.34
2018-07-05T21:39:47.688Z,100758.80
2018-07-05T21:42:28.253Z,100758.43
2018-07-05T21:45:08.689Z,100762.80
2018-07-05T21:47:49.187Z,100760.66
2018-07-05T21:50:30.310Z,100763.79
2018-07-05T21:53:10.676Z,100767.47
2018-07-05T21:55:51.496Z,100773.41
2018-07-05T21:58:32.101Z,100769.79
2018-07-05T22:01:12.779Z,100768.11
2018-07-05T22:03:52.899Z,100775.75
2018-07-05T22:06:33.311Z,100775.92
2018-07-05T22:09:13.945Z,100775.33
2018-07-05T22:11:54.744Z,100776.02
2018-07-05T22:14:35.178Z,100779.11
2018-07-05T22:17:20.432Z,100773.01
2018-07-05T22:20:05.841Z,100766.77
2018-07-05T22:22:51.310Z,100765.71
2018-07-05T22:25:36.787Z,100762.16
2018-07-05T22:28:22.369Z,100761.25
2018-07-05T22:31:07.747Z,100758.06
2018-07-05T22:33:48.239Z,100756.63
2018-07-05T22:36:28.999Z,100755.05
2018-07-05T22:39:09.327Z,100765.19
2018-07-05T22:41:49.745Z,100764.45
2018-07-05T22:44:30.260Z,100764.20
2018-07-05T22:47:11.006Z,100764.62
2018-07-05T22:49:51.183Z,100763.10
2018-07-05T22:52:31.757Z,100766.77
2018-07-05T22:55:12.107Z,100766.74
2018-07-05T22:57:52.510Z,100769.41
2018-07-05T23:00:33.028Z,100771.02
2018-07-05T23:03:13.355Z,100780.98
2018-07-05T23:05:53.640Z,100772.02
2018-07-05T23:08:33.999Z,100773.31
2018-07-05T23:11:14.672Z,100780.30
2018-07-05T23:13:55.437Z,100786.80
2018-07-05T23:16:36.004Z,100786.73
2018-07-05T23:19:16.469Z,100787.98
2018-07-05T23:21:56.825Z,100785.12
2018-07-05T23:24:37.367Z,100784.15
2018-07-05T23:27:17.803Z,100774.77
2018-07-05T23:29:58.252Z,100769.44
2018-07-05T23:32:38.671Z,100779.89
2018-07-05T23:35:19.238Z,100777.84
2018-07-05T23:37:59.496Z,100780.05
2018-07-05T23:40:39.998Z,100780.77
2018-07-05T23:43:20.211Z,100775.09
2018-07-05T23:46:00.753Z,100780.19
2018-07-05T23:48:40.929Z,100785.31
2018-07-05T23:51:21.599Z,100779.08
2018-07-05T23:54:01.683Z,100783.53
2018-07-05T23:56:42.216Z,100786.36
2018-07-05T23:59:22.579Z,100789.02
